createdAt,value
2023-05-12T00:00:34.618Z,100766.97
2023-05-12T00:03:04.843Z,100774.44
2023-05-12T00:05:34.867Z,100766.66
2023-05-12T00:08:05.583Z,100637.69
2023-05-12T00:10:35.394Z,100573.38
2023-05-12T00:13:08.502Z,100577.91
2023-05-12T00:15:38.898Z,100610.75
2023-05-12T00:18:07.848Z,100768.53
2023-05-12T00:20:39.522Z,100772.28
2023-05-12T00:23:08.392Z,100776.66
2023-05-12T00:25:37.158Z,100765.94
2023-05-12T00:28:06.130Z,100603.81
2023-05-12T00:30:34.932Z,100682.28
2023-05-12T00:33:03.416Z,100683.00
2023-05-12T00:35:32.224Z,100763.88
2023-05-12T00:38:03.524Z,100772.56
2023-05-12T00:40:38.717Z,100656.72
2023-05-12T00:43:07.541Z,100768.34
2023-05-12T00:45:36.665Z,100773.75
2023-05-12T00:48:07.502Z,100757.47
2023-05-12T00:50:36.590Z,100740.75
2023-05-12T00:53:08.048Z,100773.91
2023-05-12T00:55:37.535Z,100772.19
2023-05-12T00:58:07.370Z,100734.00
2023-05-12T01:00:38.151Z,100770.31
2023-05-12T01:03:07.446Z,100781.81
2023-05-12T01:05:44.896Z,100768.50
2023-05-12T01:08:15.542Z,100780.06
2023-05-12T01:10:47.579Z,100780.94
2023-05-12T01:13:18.921Z,100785.41
2023-05-12T01:15:49.428Z,100775.69
2023-05-12T01:18:24.384Z,100779.22
2023-05-12T01:20:54.827Z,100782.00
2023-05-12T01:23:35.779Z,100784.94
2023-05-12T01:26:09.014Z,100786.00
2023-05-12T01:28:41.168Z,100778.22
2023-05-12T01:31:10.866Z,100783.50
2023-05-12T01:33:44.210Z,100737.28
2023-05-12T01:36:12.805Z,100759.09
2023-05-12T01:38:41.469Z,100782.69
2023-05-12T01:41:11.580Z,100781.84
2023-05-12T01:43:40.085Z,100787.34
2023-05-12T01:46:10.913Z,100675.78
2023-05-12T01:48:41.438Z,100784.06
2023-05-12T01:51:11.105Z,100789.38
2023-05-12T01:53:40.879Z,100727.53
2023-05-12T01:56:11.085Z,100792.19
2023-05-12T01:58:40.316Z,100790.44
2023-05-12T02:01:09.116Z,100794.81
2023-05-12T02:03:37.966Z,100761.78
2023-05-12T02:06:13.139Z,100759.81
2023-05-12T02:08:41.976Z,100789.66
2023-05-12T02:11:12.345Z,100794.09
2023-05-12T02:13:44.434Z,100802.88
2023-05-12T02:16:13.603Z,100703.34
2023-05-12T02:18:47.148Z,100779.13
2023-05-12T02:21:16.034Z,100753.75
2023-05-12T02:23:44.865Z,100816.19
2023-05-12T02:26:15.595Z,100790.88
2023-05-12T02:28:44.435Z,100806.69
2023-05-12T02:31:13.857Z,100810.31
2023-05-12T02:33:42.480Z,100770.38
2023-05-12T02:36:11.239Z,100802.72
2023-05-12T02:38:42.405Z,100810.78
2023-05-12T02:41:11.351Z,100810.19
2023-05-12T02:43:41.371Z,100811.13
2023-05-12T02:46:09.890Z,100809.50
2023-05-12T02:48:38.667Z,100808.78
2023-05-12T02:51:07.702Z,100805.25
2023-05-12T02:53:36.453Z,100803.56
2023-05-12T02:56:05.634Z,100808.19
2023-05-12T02:58:34.491Z,100801.16
2023-05-12T03:01:10.893Z,100541.25
2023-05-12T03:03:41.127Z,100712.28
2023-05-12T03:06:10.590Z,100811.94
2023-05-12T03:08:39.371Z,100806.81
2023-05-12T03:11:07.998Z,100761.59
2023-05-12T03:13:37.031Z,100808.56
2023-05-12T03:16:08.052Z,100730.81
2023-05-12T03:18:36.920Z,100812.16
2023-05-12T03:21:05.700Z,100730.16
2023-05-12T03:23:35.081Z,100811.44
2023-05-12T03:26:03.791Z,100818.50
2023-05-12T03:28:32.531Z,100811.63
2023-05-12T03:31:01.284Z,100823.22
2023-05-12T03:33:32.286Z,100797.88
2023-05-12T03:36:01.067Z,100829.41
2023-05-12T03:38:29.947Z,100817.88
2023-05-12T03:41:05.768Z,100827.53
2023-05-12T03:43:36.072Z,100827.53
2023-05-12T03:46:05.486Z,100828.41
2023-05-12T03:48:35.409Z,100821.41
2023-05-12T03:51:04.360Z,100829.25
2023-05-12T03:53:33.322Z,100828.34
2023-05-12T03:56:05.964Z,100829.22
2023-05-12T03:58:35.007Z,100820.31
2023-05-12T04:01:03.944Z,100823.78
2023-05-12T04:03:34.101Z,100828.97
2023-05-12T04:06:04.982Z,100823.53
2023-05-12T04:08:33.881Z,100829.66
2023-05-12T04:11:03.528Z,100828.69
2023-05-12T04:13:33.035Z,100835.56
2023-05-12T04:16:02.062Z,100837.22
2023-05-12T04:18:31.716Z,100834.56
2023-05-12T04:21:03.051Z,100842.47
2023-05-12T04:23:31.736Z,100840.75
2023-05-12T04:26:00.476Z,100846.84
2023-05-12T04:28:29.029Z,100834.69
2023-05-12T04:30:57.714Z,100848.47
2023-05-12T04:33:26.738Z,100851.84
2023-05-12T04:35:57.850Z,100857.00
2023-05-12T04:38:28.367Z,100850.75
2023-05-12T04:41:00.289Z,100845.56
2023-05-12T04:46:02.018Z,100859.34
2023-05-12T04:48:30.817Z,100862.81
2023-05-12T04:51:00.684Z,100850.66
2023-05-12T04:53:34.636Z,100865.31
2023-05-12T04:56:03.503Z,100864.28
2023-05-12T04:58:37.154Z,100863.34
2023-05-12T05:01:06.911Z,100869.38
2023-05-12T05:03:35.841Z,100871.88
2023-05-12T05:06:05.142Z,100862.00
2023-05-12T05:08:35.807Z,100861.75
2023-05-12T05:11:06.590Z,100862.44
2023-05-12T05:13:35.558Z,100864.69
2023-05-12T05:16:04.633Z,100862.53
2023-05-12T05:18:33.654Z,100870.31
2023-05-12T05:21:02.483Z,100867.19
2023-05-12T05:23:30.991Z,100868.66
2023-05-12T05:26:00.842Z,100876.41
2023-05-12T05:28:29.236Z,100871.69
2023-05-12T05:30:58.560Z,100878.53
2023-05-12T05:33:27.092Z,100876.56
2023-05-12T05:35:56.561Z,100878.94
2023-05-12T05:38:25.216Z,100878.72
2023-05-12T05:40:54.992Z,100887.53
2023-05-12T05:43:26.559Z,100865.72
2023-05-12T05:45:57.161Z,100888.28
2023-05-12T05:48:26.386Z,100885.44
2023-05-12T05:50:55.908Z,100884.53
2023-05-12T05:53:25.784Z,100885.44
2023-05-12T05:55:54.894Z,100876.69
2023-05-12T05:58:26.269Z,100893.06
2023-05-12T06:00:56.666Z,100900.16
2023-05-12T06:03:25.150Z,100900.16
2023-05-12T06:05:54.127Z,100907.03
2023-05-12T06:08:22.990Z,100905.09
2023-05-12T06:10:51.792Z,100906.69
2023-05-12T06:13:21.024Z,100903.13
2023-05-12T06:15:51.018Z,100899.25
2023-05-12T06:18:42.017Z,100904.31
2023-05-12T06:21:10.859Z,100905.94
2023-05-12T06:23:39.542Z,100906.81
2023-05-12T06:26:09.679Z,100896.97
2023-05-12T06:28:38.209Z,100923.94
2023-05-12T06:31:10.023Z,100921.16
2023-05-12T06:33:38.457Z,100922.84
2023-05-12T06:36:08.863Z,100926.09
2023-05-12T06:38:37.675Z,100926.84
2023-05-12T06:41:09.000Z,100918.69
2023-05-12T06:43:37.444Z,100918.59
2023-05-12T06:46:06.980Z,100913.09
2023-05-12T06:48:37.911Z,100928.50
2023-05-12T06:51:09.469Z,100925.72
2023-05-12T06:53:38.214Z,100921.13
2023-05-12T06:56:07.124Z,100920.13
2023-05-12T06:58:35.549Z,100891.78
2023-05-12T07:01:04.132Z,100922.19
2023-05-12T07:03:34.194Z,100917.47
2023-05-12T07:06:04.144Z,100917.19
2023-05-12T07:08:32.865Z,100926.81
2023-05-12T07:11:01.773Z,100919.50
2023-05-12T07:13:30.239Z,100919.06
2023-05-12T07:15:58.721Z,100916.81
2023-05-12T07:18:27.287Z,100920.94
2023-05-12T07:20:55.815Z,100925.84
2023-05-12T07:23:25.571Z,100921.09
2023-05-12T07:25:53.962Z,100931.69
2023-05-12T07:28:22.335Z,100924.53
2023-05-12T07:30:50.840Z,100924.25
2023-05-12T07:33:19.286Z,100922.97
2023-05-12T07:35:48.247Z,100908.94
2023-05-12T07:38:17.623Z,100924.13
2023-05-12T07:40:47.685Z,100923.81
2023-05-12T07:43:17.398Z,100918.03
2023-05-12T07:45:46.038Z,100908.81
2023-05-12T07:48:14.897Z,100923.41
2023-05-12T07:50:43.722Z,100927.66
2023-05-12T07:53:12.327Z,100930.88
2023-05-12T07:55:41.218Z,100926.25
2023-05-12T07:58:11.650Z,100931.97
2023-05-12T08:00:40.509Z,100839.72
2023-05-12T08:03:09.123Z,100928.88
2023-05-12T08:05:37.606Z,100924.78
2023-05-12T08:08:06.412Z,100930.00
2023-05-12T08:10:34.873Z,100925.25
2023-05-12T08:13:03.269Z,100937.09
2023-05-12T08:15:32.988Z,100891.47
2023-05-12T08:18:03.523Z,100934.69
2023-05-12T08:20:32.167Z,100935.34
2023-05-12T08:23:00.537Z,100942.16
2023-05-12T08:25:30.646Z,100938.41
2023-05-12T08:27:59.865Z,100934.81
2023-05-12T08:30:28.807Z,100944.13
2023-05-12T08:32:59.041Z,100932.94
2023-05-12T08:35:28.433Z,100938.28
2023-05-12T08:37:57.763Z,100940.78
2023-05-12T08:40:28.460Z,100931.22
2023-05-12T08:43:08.629Z,100935.16
2023-05-12T08:45:39.183Z,100946.16
2023-05-12T08:48:16.683Z,100940.88
2023-05-12T08:50:51.134Z,100944.19
2023-05-12T08:53:22.210Z,100925.16
2023-05-12T08:57:08.174Z,100948.16
2023-05-12T08:58:42.170Z,100935.16
2023-05-12T09:01:14.732Z,100930.53
2023-05-12T09:03:45.144Z,100904.31
2023-05-12T09:06:14.571Z,100932.44
2023-05-12T09:08:43.458Z,100918.63
2023-05-12T09:11:13.700Z,100932.88
2023-05-12T09:13:53.790Z,100892.69
2023-05-12T09:16:26.263Z,100927.97
2023-05-12T09:18:57.850Z,100925.78
2023-05-12T09:21:27.534Z,100875.06
2023-05-12T09:23:58.141Z,100929.06
2023-05-12T09:26:29.811Z,100930.44
2023-05-12T09:29:08.125Z,100933.13
2023-05-12T09:31:36.739Z,100934.69
2023-05-12T09:34:10.925Z,100932.94
2023-05-12T09:36:39.332Z,100903.47
2023-05-12T09:39:10.341Z,100885.47
2023-05-12T09:41:40.355Z,100906.63
2023-05-12T09:44:10.434Z,100929.16
2023-05-12T09:46:40.810Z,100896.00
2023-05-12T09:49:10.658Z,100933.38
2023-05-12T09:51:41.470Z,100859.78
2023-05-12T09:54:09.981Z,100858.72
2023-05-12T09:56:39.820Z,100927.13
2023-05-12T09:59:11.189Z,100780.22
2023-05-12T10:01:40.306Z,100860.78
2023-05-12T10:04:11.279Z,100912.25
2023-05-12T10:06:43.220Z,100916.69
2023-05-12T10:09:21.818Z,100920.72
2023-05-12T10:11:54.164Z,100917.63
2023-05-12T10:14:24.786Z,100914.16
2023-05-12T10:16:55.256Z,100895.28
2023-05-12T10:19:27.347Z,100910.50
2023-05-12T10:21:58.465Z,100911.22
2023-05-12T10:24:28.292Z,100910.34
2023-05-12T10:26:57.717Z,100895.13
2023-05-12T10:29:30.074Z,100850.66
2023-05-12T10:32:00.999Z,100904.72
2023-05-12T10:34:36.820Z,100903.22
2023-05-12T10:37:09.151Z,100907.06
2023-05-12T10:39:38.454Z,100909.47
2023-05-12T10:42:09.665Z,100905.41
2023-05-12T10:44:50.855Z,100903.41
2023-05-12T10:47:19.687Z,100890.31
2023-05-12T10:49:57.054Z,100906.53
2023-05-12T10:52:25.938Z,100899.41
2023-05-12T10:55:02.600Z,100820.03
2023-05-12T10:57:31.928Z,100901.16
2023-05-12T11:00:03.514Z,100899.41
2023-05-12T11:02:34.392Z,100896.88
2023-05-12T11:05:13.488Z,100896.53
2023-05-12T11:07:50.158Z,100904.22
2023-05-12T11:10:21.854Z,100912.75
2023-05-12T11:12:51.734Z,100827.53
2023-05-12T11:15:20.749Z,100859.97
2023-05-12T11:17:49.445Z,100905.25
2023-05-12T11:20:26.691Z,100887.75
2023-05-12T11:22:56.108Z,100907.03
2023-05-12T11:25:27.692Z,100869.28
2023-05-12T11:27:56.374Z,100867.09
2023-05-12T11:30:24.808Z,100883.81
2023-05-12T11:33:04.816Z,100886.00
2023-05-12T11:35:34.684Z,100884.25
2023-05-12T11:38:04.142Z,100902.63
2023-05-12T11:40:32.558Z,100894.47
2023-05-12T11:43:11.611Z,100898.34
2023-05-12T11:45:46.717Z,100794.38
2023-05-12T11:48:17.507Z,100898.31
2023-05-12T11:50:48.183Z,100884.66
2023-05-12T11:53:19.096Z,100900.00
2023-05-12T11:55:52.387Z,100907.69
2023-05-12T11:58:23.807Z,100907.09
2023-05-12T12:00:52.267Z,100897.28
2023-05-12T12:03:21.325Z,100872.56
2023-05-12T12:06:01.893Z,100898.66
2023-05-12T12:08:31.059Z,100898.16
2023-05-12T12:11:01.952Z,100892.56
2023-05-12T12:13:31.888Z,100903.13
2023-05-12T12:16:00.415Z,100895.91
2023-05-12T12:18:28.921Z,100853.13
2023-05-12T12:20:57.646Z,100898.16
2023-05-12T12:23:27.491Z,100841.06
2023-05-12T12:25:56.246Z,100891.78
2023-05-12T12:28:24.726Z,100863.84
2023-05-12T12:30:53.160Z,100871.97
2023-05-12T12:33:21.662Z,100904.78
2023-05-12T12:35:50.149Z,100906.50
2023-05-12T12:38:18.588Z,100906.66
2023-05-12T12:40:48.416Z,100910.72
2023-05-12T12:43:16.995Z,100909.53
2023-05-12T12:45:46.168Z,100907.25
2023-05-12T12:48:14.994Z,100901.75
2023-05-12T12:50:43.657Z,100901.41
2023-05-12T12:53:12.089Z,100836.34
2023-05-12T12:55:40.552Z,100907.97
2023-05-12T12:58:10.606Z,100904.53
2023-05-12T13:00:39.145Z,100910.13
2023-05-12T13:03:08.266Z,100900.25
2023-05-12T13:05:36.957Z,100903.75
2023-05-12T13:08:06.043Z,100894.91
2023-05-12T13:10:34.705Z,100854.19
2023-05-12T13:13:03.388Z,100902.00
2023-05-12T13:15:33.174Z,100899.38
2023-05-12T13:18:01.630Z,100904.25
2023-05-12T13:20:30.315Z,100859.22
2023-05-12T13:22:58.861Z,100906.19
2023-05-12T13:25:27.284Z,100893.78
2023-05-12T13:27:55.716Z,100897.34
2023-05-12T13:30:25.217Z,100797.75
2023-05-12T13:32:55.461Z,100904.00
2023-05-12T13:35:24.036Z,100887.41
2023-05-12T13:37:52.524Z,100899.25
2023-05-12T13:40:21.093Z,100893.97
2023-05-12T13:42:49.608Z,100846.84
2023-05-12T13:45:20.109Z,100851.84
2023-05-12T13:47:48.650Z,100889.16
2023-05-12T13:50:18.570Z,100886.31
2023-05-12T13:52:47.563Z,100857.53
2023-05-12T13:55:20.966Z,100877.16
2023-05-12T13:57:50.054Z,100877.34
2023-05-12T14:00:19.497Z,100840.97
2023-05-12T14:02:48.406Z,100815.56
2023-05-12T14:05:19.007Z,100880.06
2023-05-12T14:07:49.707Z,100880.41
2023-05-12T14:10:18.658Z,100820.66
2023-05-12T14:12:47.987Z,100881.03
2023-05-12T14:17:47.947Z,100860.81
2023-05-12T14:20:18.099Z,100887.38
2023-05-12T14:22:46.540Z,100879.41
2023-05-12T14:25:16.236Z,100896.53
2023-05-12T14:27:47.301Z,100733.34
2023-05-12T14:30:16.542Z,100870.63
2023-05-12T14:32:45.026Z,100864.66
2023-05-12T14:35:15.481Z,100868.06
2023-05-12T14:37:45.381Z,100879.38
2023-05-12T14:40:15.349Z,100889.59
2023-05-12T14:42:43.794Z,100757.75
2023-05-12T14:45:13.105Z,100793.00
2023-05-12T14:47:44.701Z,100651.16
2023-05-12T14:50:14.015Z,100790.19
2023-05-12T14:52:43.938Z,100877.34
2023-05-12T14:55:13.664Z,100880.63
2023-05-12T14:57:43.088Z,100874.69
2023-05-12T15:00:15.264Z,100876.53
2023-05-12T15:02:45.843Z,100862.91
2023-05-12T15:05:15.293Z,100869.53
2023-05-12T15:07:47.437Z,100866.19
2023-05-12T15:10:18.826Z,100874.38
2023-05-12T15:12:48.558Z,100772.13
2023-05-12T15:15:17.148Z,100803.63
2023-05-12T15:17:46.906Z,100861.84
2023-05-12T15:20:15.835Z,100863.78
2023-05-12T15:22:45.703Z,100708.53
2023-05-12T15:25:14.544Z,100757.47
2023-05-12T15:27:43.107Z,100857.66
2023-05-12T15:30:13.783Z,100881.75
2023-05-12T15:32:42.624Z,100867.44
2023-05-12T15:35:17.910Z,100830.41
2023-05-12T15:37:47.773Z,100672.38
2023-05-12T15:40:16.444Z,100793.56
2023-05-12T15:42:49.847Z,100606.50
2023-05-12T15:45:25.981Z,100865.06
2023-05-12T15:47:57.988Z,100723.03
2023-05-12T15:50:26.475Z,100868.84
2023-05-12T15:52:59.185Z,100711.84
2023-05-12T15:55:27.638Z,100828.44
2023-05-12T15:57:56.381Z,100837.97
2023-05-12T16:00:26.405Z,100864.72
2023-05-12T16:02:54.928Z,100845.44
2023-05-12T16:05:24.059Z,100862.50
2023-05-12T16:07:54.727Z,100863.13
2023-05-12T16:10:24.616Z,100726.16
2023-05-12T16:12:53.069Z,100833.19
2023-05-12T16:15:23.619Z,100837.59
2023-05-12T16:17:52.182Z,100864.59
2023-05-12T16:20:21.022Z,100800.00
2023-05-12T16:22:52.597Z,100844.41
2023-05-12T16:25:35.894Z,100850.56
2023-05-12T16:28:05.899Z,100779.09
2023-05-12T16:30:35.847Z,100821.59
2023-05-12T16:33:07.183Z,100704.31
2023-05-12T16:35:36.097Z,100821.00
2023-05-12T16:38:04.841Z,100851.16
2023-05-12T16:40:33.402Z,100702.25
2023-05-12T16:43:02.047Z,100856.59
2023-05-12T16:45:32.736Z,100846.09
2023-05-12T16:48:01.674Z,100864.59
2023-05-12T16:50:30.356Z,100689.38
2023-05-12T16:52:59.284Z,100861.09
2023-05-12T16:55:29.260Z,100858.00
2023-05-12T16:57:57.870Z,100857.50
2023-05-12T17:00:26.370Z,100778.59
2023-05-12T17:02:57.572Z,100853.44
2023-05-12T17:05:28.850Z,100852.44
2023-05-12T17:07:57.790Z,100756.41
2023-05-12T17:10:27.103Z,100827.41
2023-05-12T17:12:56.085Z,100756.56
2023-05-12T17:15:24.744Z,100857.72
2023-05-12T17:17:53.820Z,100715.00
2023-05-12T17:20:24.274Z,100857.00
2023-05-12T17:22:53.431Z,100742.31
2023-05-12T17:25:23.394Z,100870.25
2023-05-12T17:27:58.775Z,100728.47
2023-05-12T17:30:28.173Z,100765.66
2023-05-12T17:33:00.565Z,100882.97
2023-05-12T17:35:32.630Z,100687.06
2023-05-12T17:38:02.075Z,100863.97
2023-05-12T17:40:31.477Z,100894.72
2023-05-12T17:42:59.956Z,100903.66
2023-05-12T17:45:28.799Z,100899.38
2023-05-12T17:47:57.335Z,100870.88
2023-05-12T17:50:25.937Z,100877.00
2023-05-12T17:52:56.682Z,100865.84
2023-05-12T17:55:25.261Z,100884.13
2023-05-12T17:57:54.284Z,100901.31
2023-05-12T18:00:23.036Z,100848.03
2023-05-12T18:02:51.781Z,100899.84
2023-05-12T18:05:22.389Z,100904.22
2023-05-12T18:07:51.347Z,100906.34
2023-05-12T18:10:21.563Z,100901.75
2023-05-12T18:12:53.650Z,100903.56
2023-05-12T18:15:24.541Z,100871.78
2023-05-12T18:17:53.245Z,100797.09
2023-05-12T18:20:22.157Z,100840.50
2023-05-12T18:22:51.763Z,100912.47
2023-05-12T18:25:22.125Z,100912.25
2023-05-12T18:27:51.302Z,100755.72
2023-05-12T18:30:20.062Z,100676.59
2023-05-12T18:32:48.626Z,100741.53
2023-05-12T18:35:17.186Z,100746.56
2023-05-12T18:37:46.027Z,100916.06
2023-05-12T18:40:14.720Z,100922.63
2023-05-12T18:42:50.734Z,100910.47
2023-05-12T18:45:19.869Z,100918.38
2023-05-12T18:47:48.725Z,100922.78
2023-05-12T18:50:17.669Z,100906.31
2023-05-12T18:52:48.648Z,100893.34
2023-05-12T18:55:17.346Z,100924.41
2023-05-12T18:57:47.355Z,100849.22
2023-05-12T19:00:17.892Z,100938.72
2023-05-12T19:02:47.805Z,100722.72
2023-05-12T19:05:17.139Z,100940.22
2023-05-12T19:07:45.723Z,100906.88
2023-05-12T19:10:14.230Z,100935.28
2023-05-12T19:12:42.931Z,100939.16
2023-05-12T19:15:12.969Z,100924.53
2023-05-12T19:17:41.493Z,100946.09
2023-05-12T19:20:10.889Z,100952.69
2023-05-12T19:22:40.817Z,100937.59
2023-05-12T19:25:10.963Z,100953.09
2023-05-12T19:27:39.584Z,100955.34
2023-05-12T19:30:09.561Z,100952.06
2023-05-12T19:32:40.111Z,100915.75
2023-05-12T19:35:11.711Z,100955.78
2023-05-12T19:37:40.664Z,100915.94
2023-05-12T19:40:10.266Z,100963.84
2023-05-12T19:42:38.676Z,100960.19
2023-05-12T19:45:11.378Z,100933.22
2023-05-12T19:47:43.971Z,100951.19
2023-05-12T19:50:12.628Z,100957.41
2023-05-12T19:52:41.085Z,100958.97
2023-05-12T19:55:10.502Z,100966.03
2023-05-12T19:57:38.955Z,100964.44
2023-05-12T20:00:09.247Z,100969.28
2023-05-12T20:02:45.967Z,100924.84
2023-05-12T20:05:16.926Z,100973.31
2023-05-12T20:07:45.367Z,100978.22
2023-05-12T20:10:13.795Z,100932.19
2023-05-12T20:12:42.276Z,100973.44
2023-05-12T20:15:11.613Z,100962.88
2023-05-12T20:17:40.142Z,100951.75
2023-05-12T20:20:12.556Z,100984.78
2023-05-12T20:22:41.453Z,100980.94
2023-05-12T20:25:12.488Z,100981.28
2023-05-12T20:27:41.600Z,100979.94
2023-05-12T20:30:12.367Z,100981.09
2023-05-12T20:32:40.934Z,100988.78
2023-05-12T20:35:11.335Z,100984.28
2023-05-12T20:37:41.115Z,100983.66
2023-05-12T20:40:11.130Z,100990.19
2023-05-12T20:42:39.761Z,100989.75
2023-05-12T20:45:09.845Z,100992.13
2023-05-12T20:47:38.441Z,100959.50
2023-05-12T20:50:08.377Z,100993.59
2023-05-12T20:52:41.170Z,100963.78
2023-05-12T20:55:10.860Z,100996.81
2023-05-12T20:57:40.219Z,100857.22
2023-05-12T21:00:13.650Z,100999.28
2023-05-12T21:02:42.175Z,101002.91
2023-05-12T21:05:10.885Z,100993.63
2023-05-12T21:07:42.015Z,100804.22
2023-05-12T21:10:11.519Z,100987.78
2023-05-12T21:12:39.983Z,101001.88
2023-05-12T21:15:11.814Z,101011.41
2023-05-12T21:17:41.014Z,101008.41
2023-05-12T21:20:12.604Z,101005.16
2023-05-12T21:22:42.782Z,101009.81
2023-05-12T21:25:11.712Z,101018.53
2023-05-12T21:27:41.535Z,100990.94
2023-05-12T21:30:11.709Z,100822.00
2023-05-12T21:32:40.482Z,101011.59
2023-05-12T21:35:09.564Z,100963.75
2023-05-12T21:37:38.377Z,101010.84
2023-05-12T21:40:11.186Z,101023.31
2023-05-12T21:42:39.702Z,100982.44
2023-05-12T21:45:09.836Z,101021.25
2023-05-12T21:47:38.326Z,101020.63
2023-05-12T21:50:07.925Z,101028.53
2023-05-12T21:52:36.958Z,101019.94
2023-05-12T21:55:08.040Z,101031.53
2023-05-12T21:57:37.320Z,101033.72
2023-05-12T22:00:07.606Z,100993.75
2023-05-12T22:02:38.606Z,101028.56
2023-05-12T22:05:09.032Z,101030.38
2023-05-12T22:07:37.505Z,101030.22
2023-05-12T22:10:08.321Z,101021.84
2023-05-12T22:12:37.360Z,101027.19
2023-05-12T22:15:06.981Z,101028.84
2023-05-12T22:17:35.492Z,101038.09
2023-05-12T22:20:04.286Z,101036.44
2023-05-12T22:22:32.694Z,101047.38
2023-05-12T22:25:01.074Z,101034.50
2023-05-12T22:27:30.826Z,101036.97
2023-05-12T22:29:59.232Z,101037.94
2023-05-12T22:32:27.731Z,101044.28
2023-05-12T22:34:56.354Z,101033.59
2023-05-12T22:37:26.007Z,101021.41
2023-05-12T22:39:54.835Z,101041.75
2023-05-12T22:42:23.555Z,101041.75
2023-05-12T22:44:53.351Z,101044.28
2023-05-12T22:47:21.831Z,101039.97
2023-05-12T22:49:50.519Z,101048.81
2023-05-12T22:52:18.947Z,101009.59
2023-05-12T22:54:47.412Z,101041.97
2023-05-12T22:57:15.879Z,101042.22
2023-05-12T22:59:44.277Z,101037.69
2023-05-12T23:02:14.205Z,101042.63
2023-05-12T23:04:42.672Z,101035.63
2023-05-12T23:07:11.497Z,101038.47
2023-05-12T23:09:39.869Z,101036.47
2023-05-12T23:12:09.313Z,101040.94
2023-05-12T23:14:37.791Z,101039.34
2023-05-12T23:17:06.719Z,101035.91
2023-05-12T23:19:37.045Z,101035.72
2023-05-12T23:22:05.740Z,101036.66
2023-05-12T23:24:34.168Z,101040.25
2023-05-12T23:27:02.617Z,101016.22
2023-05-12T23:29:31.112Z,101040.97
2023-05-12T23:31:59.724Z,101049.47
2023-05-12T23:34:28.386Z,101045.22
2023-05-12T23:36:58.204Z,101048.97
2023-05-12T23:39:26.830Z,101049.03
2023-05-12T23:41:55.196Z,101046.34
2023-05-12T23:44:23.659Z,101050.25
2023-05-12T23:46:52.303Z,101023.84
2023-05-12T23:49:20.816Z,101048.53
2023-05-12T23:51:49.278Z,101048.53
2023-05-12T23:54:19.347Z,101054.84
2023-05-12T23:56:47.795Z,101055.09
2023-05-12T23:59:16.562Z,101060.50
